sensor_id;sensor_type;location;lat;lon;timestamp;temperature;humidity
17333;DHT22;8784;50.94667800;7.08448400;2022-10-16T00:01:34;15.70;99.90
17333;DHT22;8784;50.94667800;7.08448400;2022-10-16T00:04:02;15.70;99.90
17333;DHT22;8784;50.94667800;7.08448400;2022-10-16T00:06:31;15.80;99.90
17333;DHT22;8784;50.94667800;7.08448400;2022-10-16T00:08:58;15.70;99.90
17333;DHT22;8784;50.94667800;7.08448400;2022-10-16T00:11:27;15.70;99.90
17333;DHT22;8784;50.94667800;7.08448400;2022-10-16T00:13:56;15.70;99.90
17333;DHT22;8784;50.94667800;7.08448400;2022-10-16T00:16:23;15.80;99.90
17333;DHT22;8784;50.94667800;7.08448400;2022-10-16T00:18:50;15.80;99.90
17333;DHT22;8784;50.94667800;7.08448400;2022-10-16T00:21:19;15.80;99.90
17333;DHT22;8784;50.94667800;7.08448400;2022-10-16T00:23:50;15.80;99.90
17333;DHT22;8784;50.94667800;7.08448400;2022-10-16T00:26:19;15.80;99.90
17333;DHT22;8784;50.94667800;7.08448400;2022-10-16T00:28:46;15.80;99.90
17333;DHT22;8784;50.94667800;7.08448400;2022-10-16T00:31:13;15.80;99.90
17333;DHT22;8784;50.94667800;7.08448400;2022-10-16T00:33:41;15.80;99.90
17333;DHT22;8784;50.94667800;7.08448400;2022-10-16T00:36:10;15.80;99.90
17333;DHT22;8784;50.94667800;7.08448400;2022-10-16T00:38:37;15.80;99.90
17333;DHT22;8784;50.94667800;7.08448400;2022-10-16T00:41:09;15.80;99.90
17333;DHT22;8784;50.94667800;7.08448400;2022-10-16T00:43:39;15.70;99.90
17333;DHT22;8784;50.94667800;7.08448400;2022-10-16T00:46:12;15.70;99.90
17333;DHT22;8784;50.94667800;7.08448400;2022-10-16T00:48:40;15.70;99.90
17333;DHT22;8784;50.94667800;7.08448400;2022-10-16T00:51:08;15.70;99.90
17333;DHT22;8784;50.94667800;7.08448400;2022-10-16T00:53:35;15.70;99.90
17333;DHT22;8784;50.94667800;7.08448400;2022-10-16T00:56:03;15.70;99.90
17333;DHT22;8784;50.94667800;7.08448400;2022-10-16T00:58:32;15.60;99.90
17333;DHT22;8784;50.94667800;7.08448400;2022-10-16T01:00:59;15.60;99.90
17333;DHT22;8784;50.94667800;7.08448400;2022-10-16T01:03:29;15.70;99.90
17333;DHT22;8784;50.94667800;7.08448400;2022-10-16T01:06:09;15.60;99.90
17333;DHT22;8784;50.94667800;7.08448400;2022-10-16T01:08:49;15.60;99.90
17333;DHT22;8784;50.94667800;7.08448400;2022-10-16T01:11:25;15.50;99.90
17333;DHT22;8784;50.94667800;7.08448400;2022-10-16T01:14:00;15.50;99.90
17333;DHT22;8784;50.94667800;7.08448400;2022-10-16T01:16:32;15.50;99.90
17333;DHT22;8784;50.94667800;7.08448400;2022-10-16T01:19:09;15.50;99.90
17333;DHT22;8784;50.94667800;7.08448400;2022-10-16T01:21:41;15.50;99.90
17333;DHT22;8784;50.94667800;7.08448400;2022-10-16T01:24:17;15.50;99.90
17333;DHT22;8784;50.94667800;7.08448400;2022-10-16T01:27:20;15.50;99.90
17333;DHT22;8784;50.94667800;7.08448400;2022-10-16T01:29:52;15.50;99.90
17333;DHT22;8784;50.94667800;7.08448400;2022-10-16T01:32:31;15.50;99.90
17333;DHT22;8784;50.94667800;7.08448400;2022-10-16T01:35:03;15.60;99.90
17333;DHT22;8784;50.94667800;7.08448400;2022-10-16T01:37:36;15.60;99.90
17333;DHT22;8784;50.94667800;7.08448400;2022-10-16T01:40:09;15.60;99.90
17333;DHT22;8784;50.94667800;7.08448400;2022-10-16T01:42:41;15.60;99.90
17333;DHT22;8784;50.94667800;7.08448400;2022-10-16T01:45:12;15.60;99.90
17333;DHT22;8784;50.94667800;7.08448400;2022-10-16T01:47:41;15.60;99.90
17333;DHT22;8784;50.94667800;7.08448400;2022-10-16T01:50:09;15.50;99.90
17333;DHT22;8784;50.94667800;7.08448400;2022-10-16T01:52:40;15.50;99.90
17333;DHT22;8784;50.94667800;7.08448400;2022-10-16T01:55:10;15.50;99.90
17333;DHT22;8784;50.94667800;7.08448400;2022-10-16T01:57:44;15.40;99.90
17333;DHT22;8784;50.94667800;7.08448400;2022-10-16T02:00:13;15.40;99.90
17333;DHT22;8784;50.94667800;7.08448400;2022-10-16T02:02:41;15.40;99.90
17333;DHT22;8784;50.94667800;7.08448400;2022-10-16T02:05:14;15.30;99.90
17333;DHT22;8784;50.94667800;7.08448400;2022-10-16T02:07:42;15.30;99.90
17333;DHT22;8784;50.94667800;7.08448400;2022-10-16T02:10:09;15.30;99.90
17333;DHT22;8784;50.94667800;7.08448400;2022-10-16T02:12:39;15.20;99.90
17333;DHT22;8784;50.94667800;7.08448400;2022-10-16T02:15:09;15.30;99.90
17333;DHT22;8784;50.94667800;7.08448400;2022-10-16T02:17:36;15.30;99.90
17333;DHT22;8784;50.94667800;7.08448400;2022-10-16T02:20:04;15.30;99.90
17333;DHT22;8784;50.94667800;7.08448400;2022-10-16T02:22:35;15.20;99.90
17333;DHT22;8784;50.94667800;7.08448400;2022-10-16T02:25:06;15.30;99.90
17333;DHT22;8784;50.94667800;7.08448400;2022-10-16T02:27:40;15.20;99.90
17333;DHT22;8784;50.94667800;7.08448400;2022-10-16T02:30:14;15.30;99.90
17333;DHT22;8784;50.94667800;7.08448400;2022-10-16T02:32:45;15.30;99.90
17333;DHT22;8784;50.94667800;7.08448400;2022-10-16T02:35:13;15.30;99.90
17333;DHT22;8784;50.94667800;7.08448400;2022-10-16T02:37:42;15.30;99.90
17333;DHT22;8784;50.94667800;7.08448400;2022-10-16T02:40:10;15.30;99.90
17333;DHT22;8784;50.94667800;7.08448400;2022-10-16T02:42:40;15.30;99.90
17333;DHT22;8784;50.94667800;7.08448400;2022-10-16T02:45:10;15.30;99.90
17333;DHT22;8784;50.94667800;7.08448400;2022-10-16T02:47:37;15.30;99.90
17333;DHT22;8784;50.94667800;7.08448400;2022-10-16T02:50:05;15.30;99.90
17333;DHT22;8784;50.94667800;7.08448400;2022-10-16T02:52:33;15.40;99.90
17333;DHT22;8784;50.94667800;7.08448400;2022-10-16T02:55:02;15.40;99.90
17333;DHT22;8784;50.94667800;7.08448400;2022-10-16T02:57:29;15.40;99.90
17333;DHT22;8784;50.94667800;7.08448400;2022-10-16T02:59:57;15.40;99.90
17333;DHT22;8784;50.94667800;7.08448400;2022-10-16T03:02:25;15.40;99.90
17333;DHT22;8784;50.94667800;7.08448400;2022-10-16T03:04:52;15.40;99.90
17333;DHT22;8784;50.94667800;7.08448400;2022-10-16T03:07:21;15.40;99.90
17333;DHT22;8784;50.94667800;7.08448400;2022-10-16T03:09:48;15.40;99.90
17333;DHT22;8784;50.94667800;7.08448400;2022-10-16T03:12:15;15.40;99.90
17333;DHT22;8784;50.94667800;7.08448400;2022-10-16T03:14:42;15.50;99.90
17333;DHT22;8784;50.94667800;7.08448400;2022-10-16T03:17:10;15.50;99.90
17333;DHT22;8784;50.94667800;7.08448400;2022-10-16T03:19:39;15.40;99.90
17333;DHT22;8784;50.94667800;7.08448400;2022-10-16T03:22:06;15.40;99.90
17333;DHT22;8784;50.94667800;7.08448400;2022-10-16T03:24:34;15.40;99.90
17333;DHT22;8784;50.94667800;7.08448400;2022-10-16T03:27:01;15.40;99.90
17333;DHT22;8784;50.94667800;7.08448400;2022-10-16T03:29:27;15.40;99.90
17333;DHT22;8784;50.94667800;7.08448400;2022-10-16T03:31:55;15.40;99.90
17333;DHT22;8784;50.94667800;7.08448400;2022-10-16T03:34:22;15.30;99.90
17333;DHT22;8784;50.94667800;7.08448400;2022-10-16T03:36:51;15.20;99.90
17333;DHT22;8784;50.94667800;7.08448400;2022-10-16T03:39:18;15.20;99.90
17333;DHT22;8784;50.94667800;7.08448400;2022-10-16T03:41:45;15.20;99.90
17333;DHT22;8784;50.94667800;7.08448400;2022-10-16T03:44:13;15.20;99.90
17333;DHT22;8784;50.94667800;7.08448400;2022-10-16T03:46:40;15.20;99.90
17333;DHT22;8784;50.94667800;7.08448400;2022-10-16T03:49:07;15.20;99.90
17333;DHT22;8784;50.94667800;7.08448400;2022-10-16T03:51:35;15.10;99.90
17333;DHT22;8784;50.94667800;7.08448400;2022-10-16T03:54:03;15.10;99.90
17333;DHT22;8784;50.94667800;7.08448400;2022-10-16T03:56:30;15.10;99.90
17333;DHT22;8784;50.94667800;7.08448400;2022-10-16T03:58:58;15.10;99.90
17333;DHT22;8784;50.94667800;7.08448400;2022-10-16T04:01:25;15.10;99.90
17333;DHT22;8784;50.94667800;7.08448400;2022-10-16T04:03:52;15.10;99.90
17333;DHT22;8784;50.94667800;7.08448400;2022-10-16T04:06:19;15.10;99.90
17333;DHT22;8784;50.94667800;7.08448400;2022-10-16T04:08:46;15.10;99.90
17333;DHT22;8784;50.94667800;7.08448400;2022-10-16T04:11:14;15.10;99.90
17333;DHT22;8784;50.94667800;7.08448400;2022-10-16T04:13:41;15.10;99.90
17333;DHT22;8784;50.94667800;7.08448400;2022-10-16T04:16:09;15.10;99.90
17333;DHT22;8784;50.94667800;7.08448400;2022-10-16T04:18:36;15.00;99.90
17333;DHT22;8784;50.94667800;7.08448400;2022-10-16T04:21:04;15.00;99.90
17333;DHT22;8784;50.94667800;7.08448400;2022-10-16T04:23:32;15.00;99.90
17333;DHT22;8784;50.94667800;7.08448400;2022-10-16T04:26:00;15.00;99.90
17333;DHT22;8784;50.94667800;7.08448400;2022-10-16T04:28:28;15.00;99.90
17333;DHT22;8784;50.94667800;7.08448400;2022-10-16T04:30:55;14.90;99.90
17333;DHT22;8784;50.94667800;7.08448400;2022-10-16T04:33:22;15.10;99.90
17333;DHT22;8784;50.94667800;7.08448400;2022-10-16T04:35:56;15.10;99.90
17333;DHT22;8784;50.94667800;7.08448400;2022-10-16T04:38:24;15.20;99.90
17333;DHT22;8784;50.94667800;7.08448400;2022-10-16T04:40:52;15.20;99.90
17333;DHT22;8784;50.94667800;7.08448400;2022-10-16T04:43:19;15.20;99.90
17333;DHT22;8784;50.94667800;7.08448400;2022-10-16T04:45:47;15.20;99.90
17333;DHT22;8784;50.94667800;7.08448400;2022-10-16T04:48:16;15.20;99.90
17333;DHT22;8784;50.94667800;7.08448400;2022-10-16T04:50:43;15.10;99.90
17333;DHT22;8784;50.94667800;7.08448400;2022-10-16T04:53:10;15.10;99.90
17333;DHT22;8784;50.94667800;7.08448400;2022-10-16T04:55:37;15.20;99.90
17333;DHT22;8784;50.94667800;7.08448400;2022-10-16T04:58:05;15.20;99.90
17333;DHT22;8784;50.94667800;7.08448400;2022-10-16T05:00:32;15.20;99.90
17333;DHT22;8784;50.94667800;7.08448400;2022-10-16T05:03:00;15.20;99.90
17333;DHT22;8784;50.94667800;7.08448400;2022-10-16T05:05:31;15.20;99.90
17333;DHT22;8784;50.94667800;7.08448400;2022-10-16T05:07:59;15.10;99.90
17333;DHT22;8784;50.94667800;7.08448400;2022-10-16T05:10:25;15.20;99.90
17333;DHT22;8784;50.94667800;7.08448400;2022-10-16T05:12:53;15.10;99.90
17333;DHT22;8784;50.94667800;7.08448400;2022-10-16T05:15:20;15.10;99.90
17333;DHT22;8784;50.94667800;7.08448400;2022-10-16T05:17:52;15.10;99.90
17333;DHT22;8784;50.94667800;7.08448400;2022-10-16T05:20:21;15.10;99.90
17333;DHT22;8784;50.94667800;7.08448400;2022-10-16T05:22:48;15.10;99.90
17333;DHT22;8784;50.94667800;7.08448400;2022-10-16T05:25:16;15.10;99.90
17333;DHT22;8784;50.94667800;7.08448400;2022-10-16T05:27:43;15.20;99.90
17333;DHT22;8784;50.94667800;7.08448400;2022-10-16T05:30:10;15.10;99.90
17333;DHT22;8784;50.94667800;7.08448400;2022-10-16T05:32:37;15.20;99.90
17333;DHT22;8784;50.94667800;7.08448400;2022-10-16T05:35:04;15.20;99.90
17333;DHT22;8784;50.94667800;7.08448400;2022-10-16T05:37:33;15.20;99.90
17333;DHT22;8784;50.94667800;7.08448400;2022-10-16T05:40:00;15.20;99.90
17333;DHT22;8784;50.94667800;7.08448400;2022-10-16T05:42:30;15.20;99.90
17333;DHT22;8784;50.94667800;7.08448400;2022-10-16T05:44:57;15.20;99.90
17333;DHT22;8784;50.94667800;7.08448400;2022-10-16T05:47:24;15.20;99.90
17333;DHT22;8784;50.94667800;7.08448400;2022-10-16T05:49:52;15.20;99.90
17333;DHT22;8784;50.94667800;7.08448400;2022-10-16T05:52:19;15.20;99.90
17333;DHT22;8784;50.94667800;7.08448400;2022-10-16T05:54:47;15.20;99.90
17333;DHT22;8784;50.94667800;7.08448400;2022-10-16T05:57:14;15.20;99.90
17333;DHT22;8784;50.94667800;7.08448400;2022-10-16T05:59:41;15.20;99.90
17333;DHT22;8784;50.94667800;7.08448400;2022-10-16T06:02:12;15.20;99.90
17333;DHT22;8784;50.94667800;7.08448400;2022-10-16T06:04:39;15.10;99.90
17333;DHT22;8784;50.94667800;7.08448400;2022-10-16T06:07:06;15.10;99.90
17333;DHT22;8784;50.94667800;7.08448400;2022-10-16T06:09:33;15.10;99.90
17333;DHT22;8784;50.94667800;7.08448400;2022-10-16T06:12:02;15.10;99.90
17333;DHT22;8784;50.94667800;7.08448400;2022-10-16T06:14:29;15.10;99.90
17333;DHT22;8784;50.94667800;7.08448400;2022-10-16T06:16:56;15.10;99.90
17333;DHT22;8784;50.94667800;7.08448400;2022-10-16T06:19:23;15.10;99.90
17333;DHT22;8784;50.94667800;7.08448400;2022-10-16T06:21:50;15.10;99.90
17333;DHT22;8784;50.94667800;7.08448400;2022-10-16T06:24:17;15.10;99.90
17333;DHT22;8784;50.94667800;7.08448400;2022-10-16T06:26:44;15.10;99.90
17333;DHT22;8784;50.94667800;7.08448400;2022-10-16T06:29:12;15.00;99.90
17333;DHT22;8784;50.94667800;7.08448400;2022-10-16T06:31:39;15.10;99.90
17333;DHT22;8784;50.94667800;7.08448400;2022-10-16T06:34:09;15.10;99.90
17333;DHT22;8784;50.94667800;7.08448400;2022-10-16T06:36:37;15.10;99.90
17333;DHT22;8784;50.94667800;7.08448400;2022-10-16T06:39:05;15.20;99.90
17333;DHT22;8784;50.94667800;7.08448400;2022-10-16T06:41:33;15.20;99.90
17333;DHT22;8784;50.94667800;7.08448400;2022-10-16T06:44:00;15.20;99.90
17333;DHT22;8784;50.94667800;7.08448400;2022-10-16T06:46:29;15.20;99.90
17333;DHT22;8784;50.94667800;7.08448400;2022-10-16T06:48:56;15.20;99.90
17333;DHT22;8784;50.94667800;7.08448400;2022-10-16T06:51:24;15.30;99.90
17333;DHT22;8784;50.94667800;7.08448400;2022-10-16T06:53:53;15.40;99.90
17333;DHT22;8784;50.94667800;7.08448400;2022-10-16T06:56:23;15.40;99.90
17333;DHT22;8784;50.94667800;7.08448400;2022-10-16T06:58:50;15.50;99.90
17333;DHT22;8784;50.94667800;7.08448400;2022-10-16T07:01:19;15.50;99.90
17333;DHT22;8784;50.94667800;7.08448400;2022-10-16T07:03:48;15.60;99.90
17333;DHT22;8784;50.94667800;7.08448400;2022-10-16T07:06:17;15.60;99.90
17333;DHT22;8784;50.94667800;7.08448400;2022-10-16T07:08:45;15.70;99.90
17333;DHT22;8784;50.94667800;7.08448400;2022-10-16T07:11:14;15.80;99.90
17333;DHT22;8784;50.94667800;7.08448400;2022-10-16T07:13:42;15.80;99.90
17333;DHT22;8784;50.94667800;7.08448400;2022-10-16T07:16:12;15.90;99.90
17333;DHT22;8784;50.94667800;7.08448400;2022-10-16T07:18:40;15.90;99.90
17333;DHT22;8784;50.94667800;7.08448400;2022-10-16T07:21:12;16.00;99.90
17333;DHT22;8784;50.94667800;7.08448400;2022-10-16T07:23:40;16.10;99.90
17333;DHT22;8784;50.94667800;7.08448400;2022-10-16T07:26:07;16.10;99.90
17333;DHT22;8784;50.94667800;7.08448400;2022-10-16T07:28:35;16.20;99.90
17333;DHT22;8784;50.94667800;7.08448400;2022-10-16T07:31:02;16.20;99.90
17333;DHT22;8784;50.94667800;7.08448400;2022-10-16T07:33:30;16.30;99.90
17333;DHT22;8784;50.94667800;7.08448400;2022-10-16T07:35:57;16.30;99.90
17333;DHT22;8784;50.94667800;7.08448400;2022-10-16T07:38:26;16.40;99.90
17333;DHT22;8784;50.94667800;7.08448400;2022-10-16T07:40:57;16.40;99.90
17333;DHT22;8784;50.94667800;7.08448400;2022-10-16T07:43:26;16.40;99.90
17333;DHT22;8784;50.94667800;7.08448400;2022-10-16T07:45:54;16.40;99.90
17333;DHT22;8784;50.94667800;7.08448400;2022-10-16T07:48:22;16.40;99.90
17333;DHT22;8784;50.94667800;7.08448400;2022-10-16T07:50:50;16.50;99.90
17333;DHT22;8784;50.94667800;7.08448400;2022-10-16T07:53:17;16.50;99.90
17333;DHT22;8784;50.94667800;7.08448400;2022-10-16T07:55:46;16.60;99.90
17333;DHT22;8784;50.94667800;7.08448400;2022-10-16T07:58:12;16.60;99.90
17333;DHT22;8784;50.94667800;7.08448400;2022-10-16T08:00:40;16.70;99.90
17333;DHT22;8784;50.94667800;7.08448400;2022-10-16T08:03:08;16.60;99.90
17333;DHT22;8784;50.94667800;7.08448400;2022-10-16T08:05:35;16.80;99.90
17333;DHT22;8784;50.94667800;7.08448400;2022-10-16T08:08:02;16.70;99.90
17333;DHT22;8784;50.94667800;7.08448400;2022-10-16T08:10:29;16.70;99.90
17333;DHT22;8784;50.94667800;7.08448400;2022-10-16T08:12:59;16.70;99.90
17333;DHT22;8784;50.94667800;7.08448400;2022-10-16T08:15:26;16.70;99.90
17333;DHT22;8784;50.94667800;7.08448400;2022-10-16T08:17:57;16.80;99.90
17333;DHT22;8784;50.94667800;7.08448400;2022-10-16T08:20:25;16.80;99.90
17333;DHT22;8784;50.94667800;7.08448400;2022-10-16T08:22:52;16.90;99.90
17333;DHT22;8784;50.94667800;7.08448400;2022-10-16T08:25:21;16.90;99.90
17333;DHT22;8784;50.94667800;7.08448400;2022-10-16T08:27:48;17.00;99.90
17333;DHT22;8784;50.94667800;7.08448400;2022-10-16T08:30:19;17.20;99.90
17333;DHT22;8784;50.94667800;7.08448400;2022-10-16T08:32:46;17.30;99.90
17333;DHT22;8784;50.94667800;7.08448400;2022-10-16T08:35:14;17.40;99.90
17333;DHT22;8784;50.94667800;7.08448400;2022-10-16T08:37:42;17.60;99.90
17333;DHT22;8784;50.94667800;7.08448400;2022-10-16T08:40:17;17.70;99.90
17333;DHT22;8784;50.94667800;7.08448400;2022-10-16T08:43:00;17.90;99.90
17333;DHT22;8784;50.94667800;7.08448400;2022-10-16T08:45:49;18.10;99.90
17333;DHT22;8784;50.94667800;7.08448400;2022-10-16T08:48:26;18.30;99.90
17333;DHT22;8784;50.94667800;7.08448400;2022-10-16T08:50:55;18.50;99.90
17333;DHT22;8784;50.94667800;7.08448400;2022-10-16T08:53:26;18.60;99.90
17333;DHT22;8784;50.94667800;7.08448400;2022-10-16T08:55:57;18.80;99.90
17333;DHT22;8784;50.94667800;7.08448400;2022-10-16T08:58:28;18.90;99.90
17333;DHT22;8784;50.94667800;7.08448400;2022-10-16T09:01:00;19.10;99.90
17333;DHT22;8784;50.94667800;7.08448400;2022-10-16T09:03:46;19.20;99.90
17333;DHT22;8784;50.94667800;7.08448400;2022-10-16T09:06:29;19.30;99.90
17333;DHT22;8784;50.94667800;7.08448400;2022-10-16T09:09:09;19.40;99.90
17333;DHT22;8784;50.94667800;7.08448400;2022-10-16T09:11:45;19.50;99.90
17333;DHT22;8784;50.94667800;7.08448400;2022-10-16T09:17:39;19.90;99.90
17333;DHT22;8784;50.94667800;7.08448400;2022-10-16T09:20:19;20.10;99.90
17333;DHT22;8784;50.94667800;7.08448400;2022-10-16T09:22:51;20.20;99.90
17333;DHT22;8784;50.94667800;7.08448400;2022-10-16T09:25:21;20.40;99.90
17333;DHT22;8784;50.94667800;7.08448400;2022-10-16T09:27:56;20.60;99.90
17333;DHT22;8784;50.94667800;7.08448400;2022-10-16T09:30:27;20.80;99.90
17333;DHT22;8784;50.94667800;7.08448400;2022-10-16T09:32:57;21.00;99.90
17333;DHT22;8784;50.94667800;7.08448400;2022-10-16T09:35:31;21.30;99.90
17333;DHT22;8784;50.94667800;7.08448400;2022-10-16T09:37:59;21.50;99.90
17333;DHT22;8784;50.94667800;7.08448400;2022-10-16T09:40:29;21.70;99.90
17333;DHT22;8784;50.94667800;7.08448400;2022-10-16T09:43:02;21.80;99.90
17333;DHT22;8784;50.94667800;7.08448400;2022-10-16T09:45:30;22.00;99.90
17333;DHT22;8784;50.94667800;7.08448400;2022-10-16T09:48:01;22.20;99.90
17333;DHT22;8784;50.94667800;7.08448400;2022-10-16T09:50:36;22.50;99.90
17333;DHT22;8784;50.94667800;7.08448400;2022-10-16T09:53:05;22.60;99.90
17333;DHT22;8784;50.94667800;7.08448400;2022-10-16T09:55:33;22.70;99.90
17333;DHT22;8784;50.94667800;7.08448400;2022-10-16T09:58:00;22.70;99.90
17333;DHT22;8784;50.94667800;7.08448400;2022-10-16T10:00:26;22.90;99.90
17333;DHT22;8784;50.94667800;7.08448400;2022-10-16T10:02:55;22.90;99.90
17333;DHT22;8784;50.94667800;7.08448400;2022-10-16T10:05:25;22.90;99.90
17333;DHT22;8784;50.94667800;7.08448400;2022-10-16T10:07:55;22.90;99.90
17333;DHT22;8784;50.94667800;7.08448400;2022-10-16T10:10:24;22.90;99.90
17333;DHT22;8784;50.94667800;7.08448400;2022-10-16T10:12:52;22.90;99.90
17333;DHT22;8784;50.94667800;7.08448400;2022-10-16T10:15:19;22.70;99.90
17333;DHT22;8784;50.94667800;7.08448400;2022-10-16T10:17:49;22.70;99.90
17333;DHT22;8784;50.94667800;7.08448400;2022-10-16T10:20:24;22.70;99.90
17333;DHT22;8784;50.94667800;7.08448400;2022-10-16T10:22:53;22.80;99.90
17333;DHT22;8784;50.94667800;7.08448400;2022-10-16T10:25:33;22.80;99.70
17333;DHT22;8784;50.94667800;7.08448400;2022-10-16T10:28:33;22.80;99.30
17333;DHT22;8784;50.94667800;7.08448400;2022-10-16T10:31:07;22.70;98.40
17333;DHT22;8784;50.94667800;7.08448400;2022-10-16T10:33:43;22.60;98.90
17333;DHT22;8784;50.94667800;7.08448400;2022-10-16T10:36:23;22.40;98.70
17333;DHT22;8784;50.94667800;7.08448400;2022-10-16T10:38:56;22.30;98.70
17333;DHT22;8784;50.94667800;7.08448400;2022-10-16T10:41:39;22.30;98.90
17333;DHT22;8784;50.94667800;7.08448400;2022-10-16T10:44:18;22.20;98.50
17333;DHT22;8784;50.94667800;7.08448400;2022-10-16T10:46:51;22.20;98.40
17333;DHT22;8784;50.94667800;7.08448400;2022-10-16T10:49:39;22.20;98.50
17333;DHT22;8784;50.94667800;7.08448400;2022-10-16T10:52:30;22.20;98.70
17333;DHT22;8784;50.94667800;7.08448400;2022-10-16T10:55:08;22.20;98.20
17333;DHT22;8784;50.94667800;7.08448400;2022-10-16T10:57:45;22.30;98.50
17333;DHT22;8784;50.94667800;7.08448400;2022-10-16T11:00:19;22.40;97.70
17333;DHT22;8784;50.94667800;7.08448400;2022-10-16T11:02:52;22.50;97.30
17333;DHT22;8784;50.94667800;7.08448400;2022-10-16T11:05:33;22.50;97.40
17333;DHT22;8784;50.94667800;7.08448400;2022-10-16T11:08:10;22.50;97.10
17333;DHT22;8784;50.94667800;7.08448400;2022-10-16T11:10:44;22.40;97.10
17333;DHT22;8784;50.94667800;7.08448400;2022-10-16T11:13:20;22.40;96.60
17333;DHT22;8784;50.94667800;7.08448400;2022-10-16T11:15:52;22.30;96.00
17333;DHT22;8784;50.94667800;7.08448400;2022-10-16T11:18:24;22.20;96.20
17333;DHT22;8784;50.94667800;7.08448400;2022-10-16T11:20:56;22.10;96.20
17333;DHT22;8784;50.94667800;7.08448400;2022-10-16T11:23:28;22.10;96.10
17333;DHT22;8784;50.94667800;7.08448400;2022-10-16T11:26:00;22.10;96.10
17333;DHT22;8784;50.94667800;7.08448400;2022-10-16T11:28:33;22.00;95.70
17333;DHT22;8784;50.94667800;7.08448400;2022-10-16T11:31:07;22.00;96.00
17333;DHT22;8784;50.94667800;7.08448400;2022-10-16T11:33:40;22.00;96.10
17333;DHT22;8784;50.94667800;7.08448400;2022-10-16T11:36:13;22.20;96.10
17333;DHT22;8784;50.94667800;7.08448400;2022-10-16T11:38:48;22.30;95.70
17333;DHT22;8784;50.94667800;7.08448400;2022-10-16T11:41:23;22.30;95.20
17333;DHT22;8784;50.94667800;7.08448400;2022-10-16T11:44:00;22.30;95.00
17333;DHT22;8784;50.94667800;7.08448400;2022-10-16T11:46:32;22.20;94.70
17333;DHT22;8784;50.94667800;7.08448400;2022-10-16T11:49:08;22.20;94.80
17333;DHT22;8784;50.94667800;7.08448400;2022-10-16T11:51:39;22.10;94.30
17333;DHT22;8784;50.94667800;7.08448400;2022-10-16T11:54:18;22.10;94.20
17333;DHT22;8784;50.94667800;7.08448400;2022-10-16T11:56:48;22.10;94.40
17333;DHT22;8784;50.94667800;7.08448400;2022-10-16T11:59:20;22.20;94.40
17333;DHT22;8784;50.94667800;7.08448400;2022-10-16T12:01:54;22.20;94.70
17333;DHT22;8784;50.94667800;7.08448400;2022-10-16T12:04:29;22.30;94.30
17333;DHT22;8784;50.94667800;7.08448400;2022-10-16T12:07:02;22.50;94.10
17333;DHT22;8784;50.94667800;7.08448400;2022-10-16T12:09:35;22.60;94.00
17333;DHT22;8784;50.94667800;7.08448400;2022-10-16T12:12:03;22.90;93.20
17333;DHT22;8784;50.94667800;7.08448400;2022-10-16T12:14:37;23.20;92.30
17333;DHT22;8784;50.94667800;7.08448400;2022-10-16T12:17:24;23.00;92.20
17333;DHT22;8784;50.94667800;7.08448400;2022-10-16T12:19:58;23.10;91.70
17333;DHT22;8784;50.94667800;7.08448400;2022-10-16T12:22:28;23.10;91.90
17333;DHT22;8784;50.94667800;7.08448400;2022-10-16T12:24:57;23.10;91.70
17333;DHT22;8784;50.94667800;7.08448400;2022-10-16T12:27:29;23.10;91.60
17333;DHT22;8784;50.94667800;7.08448400;2022-10-16T12:29:57;23.00;91.20
17333;DHT22;8784;50.94667800;7.08448400;2022-10-16T12:32:31;22.90;91.00
17333;DHT22;8784;50.94667800;7.08448400;2022-10-16T12:34:59;22.80;91.40
17333;DHT22;8784;50.94667800;7.08448400;2022-10-16T12:37:29;22.80;91.40
17333;DHT22;8784;50.94667800;7.08448400;2022-10-16T12:39:59;22.70;91.00
17333;DHT22;8784;50.94667800;7.08448400;2022-10-16T12:42:38;22.60;91.40
17333;DHT22;8784;50.94667800;7.08448400;2022-10-16T12:45:25;22.60;91.20
17333;DHT22;8784;50.94667800;7.08448400;2022-10-16T12:47:53;22.60;90.30
17333;DHT22;8784;50.94667800;7.08448400;2022-10-16T12:50:26;22.50;90.70
17333;DHT22;8784;50.94667800;7.08448400;2022-10-16T12:52:53;22.50;90.70
17333;DHT22;8784;50.94667800;7.08448400;2022-10-16T12:55:22;22.40;90.50
17333;DHT22;8784;50.94667800;7.08448400;2022-10-16T12:58:14;22.30;90.80
17333;DHT22;8784;50.94667800;7.08448400;2022-10-16T13:00:47;22.30;90.40
17333;DHT22;8784;50.94667800;7.08448400;2022-10-16T13:03:35;22.20;91.20
17333;DHT22;8784;50.94667800;7.08448400;2022-10-16T13:06:17;22.20;90.60
17333;DHT22;8784;50.94667800;7.08448400;2022-10-16T13:09:04;22.10;90.60
17333;DHT22;8784;50.94667800;7.08448400;2022-10-16T13:11:52;22.10;90.60
17333;DHT22;8784;50.94667800;7.08448400;2022-10-16T13:14:35;22.10;90.40
17333;DHT22;8784;50.94667800;7.08448400;2022-10-16T13:17:11;22.10;90.50
17333;DHT22;8784;50.94667800;7.08448400;2022-10-16T13:19:46;22.00;90.40
17333;DHT22;8784;50.94667800;7.08448400;2022-10-16T13:22:21;22.00;90.20
17333;DHT22;8784;50.94667800;7.08448400;2022-10-16T13:24:59;21.90;90.20
17333;DHT22;8784;50.94667800;7.08448400;2022-10-16T13:27:38;21.70;90.30
17333;DHT22;8784;50.94667800;7.08448400;2022-10-16T13:30:13;21.50;90.40
17333;DHT22;8784;50.94667800;7.08448400;2022-10-16T13:32:45;21.40;91.10
17333;DHT22;8784;50.94667800;7.08448400;2022-10-16T13:35:24;21.30;91.00
17333;DHT22;8784;50.94667800;7.08448400;2022-10-16T13:38:03;21.20;91.10
17333;DHT22;8784;50.94667800;7.08448400;2022-10-16T13:40:30;21.20;91.40
17333;DHT22;8784;50.94667800;7.08448400;2022-10-16T13:43:01;21.10;91.50
17333;DHT22;8784;50.94667800;7.08448400;2022-10-16T13:45:28;21.00;91.80
17333;DHT22;8784;50.94667800;7.08448400;2022-10-16T13:48:03;21.00;91.80
17333;DHT22;8784;50.94667800;7.08448400;2022-10-16T13:50:30;20.90;91.80
17333;DHT22;8784;50.94667800;7.08448400;2022-10-16T13:53:04;20.90;92.20
17333;DHT22;8784;50.94667800;7.08448400;2022-10-16T13:55:31;20.90;92.30
17333;DHT22;8784;50.94667800;7.08448400;2022-10-16T13:58:08;20.90;92.60